sensor_id;sensor_type;location;lat;lon;timestamp;P1;durP1;ratioP1;P2;durP2;ratioP2
13799;SDS011;6971;50.028;9.258;2024-01-15T00:01:47;23.33;;;10.17;;
13799;SDS011;6971;50.028;9.258;2024-01-15T00:06:49;20.27;;;7.20;;
13799;SDS011;6971;50.028;9.258;2024-01-15T00:11:49;16.47;;;6.73;;
13799;SDS011;6971;50.028;9.258;2024-01-15T00:16:49;19.27;;;9.63;;
13799;SDS011;6971;50.028;9.258;2024-01-15T00:21:51;20.50;;;9.60;;
13799;SDS011;6971;50.028;9.258;2024-01-15T00:26:51;16.20;;;7.47;;
13799;SDS011;6971;50.028;9.258;2024-01-15T00:31:53;20.50;;;8.40;;
13799;SDS011;6971;50.028;9.258;2024-01-15T00:36:53;16.43;;;7.77;;
13799;SDS011;6971;50.028;9.258;2024-01-15T00:41:54;15.40;;;7.17;;
13799;SDS011;6971;50.028;9.258;2024-01-15T00:46:54;11.53;;;5.50;;
13799;SDS011;6971;50.028;9.258;2024-01-15T00:51:54;19.23;;;6.87;;
13799;SDS011;6971;50.028;9.258;2024-01-15T00:56:55;26.57;;;8.13;;
13799;SDS011;6971;50.028;9.258;2024-01-15T01:01:55;18.80;;;7.97;;
13799;SDS011;6971;50.028;9.258;2024-01-15T01:06:56;18.83;;;6.20;;
13799;SDS011;6971;50.028;9.258;2024-01-15T01:11:56;11.10;;;5.93;;
13799;SDS011;6971;50.028;9.258;2024-01-15T01:16:57;8.50;;;3.87;;
13799;SDS011;6971;50.028;9.258;2024-01-15T01:21:57;11.83;;;4.77;;
13799;SDS011;6971;50.028;9.258;2024-01-15T01:26:57;9.33;;;5.53;;
13799;SDS011;6971;50.028;9.258;2024-01-15T01:31:58;12.30;;;6.13;;
13799;SDS011;6971;50.028;9.258;2024-01-15T01:36:58;16.37;;;6.23;;
13799;SDS011;6971;50.028;9.258;2024-01-15T01:41:58;17.13;;;6.47;;
13799;SDS011;6971;50.028;9.258;2024-01-15T01:46:59;13.87;;;5.93;;
13799;SDS011;6971;50.028;9.258;2024-01-15T01:52:00;12.43;;;6.57;;
13799;SDS011;6971;50.028;9.258;2024-01-15T01:57:02;9.93;;;5.53;;
13799;SDS011;6971;50.028;9.258;2024-01-15T02:02:05;19.17;;;6.13;;
13799;SDS011;6971;50.028;9.258;2024-01-15T02:07:05;23.53;;;8.13;;
13799;SDS011;6971;50.028;9.258;2024-01-15T02:12:06;11.73;;;6.10;;
13799;SDS011;6971;50.028;9.258;2024-01-15T02:17:06;9.87;;;5.40;;
13799;SDS011;6971;50.028;9.258;2024-01-15T02:22:07;13.63;;;6.63;;
13799;SDS011;6971;50.028;9.258;2024-01-15T02:27:07;12.67;;;5.43;;
13799;SDS011;6971;50.028;9.258;2024-01-15T02:32:08;13.97;;;4.90;;
13799;SDS011;6971;50.028;9.258;2024-01-15T02:37:09;15.53;;;5.90;;
13799;SDS011;6971;50.028;9.258;2024-01-15T02:42:09;13.93;;;6.43;;
13799;SDS011;6971;50.028;9.258;2024-01-15T02:47:09;10.67;;;7.07;;
13799;SDS011;6971;50.028;9.258;2024-01-15T02:52:10;14.73;;;6.10;;
13799;SDS011;6971;50.028;9.258;2024-01-15T02:57:10;11.40;;;5.60;;
13799;SDS011;6971;50.028;9.258;2024-01-15T03:02:10;6.23;;;3.87;;
13799;SDS011;6971;50.028;9.258;2024-01-15T03:07:11;11.97;;;6.20;;
13799;SDS011;6971;50.028;9.258;2024-01-15T03:12:12;16.70;;;6.37;;
13799;SDS011;6971;50.028;9.258;2024-01-15T03:17:12;20.97;;;7.63;;
13799;SDS011;6971;50.028;9.258;2024-01-15T03:22:13;15.60;;;6.83;;
13799;SDS011;6971;50.028;9.258;2024-01-15T03:27:13;13.83;;;5.67;;
13799;SDS011;6971;50.028;9.258;2024-01-15T03:32:13;12.93;;;5.50;;
13799;SDS011;6971;50.028;9.258;2024-01-15T03:37:15;21.17;;;7.00;;
13799;SDS011;6971;50.028;9.258;2024-01-15T03:42:16;11.30;;;5.57;;
13799;SDS011;6971;50.028;9.258;2024-01-15T03:47:16;13.80;;;6.40;;
13799;SDS011;6971;50.028;9.258;2024-01-15T03:52:16;13.73;;;5.60;;
13799;SDS011;6971;50.028;9.258;2024-01-15T03:57:17;12.77;;;5.07;;
13799;SDS011;6971;50.028;9.258;2024-01-15T04:02:17;16.87;;;5.50;;
13799;SDS011;6971;50.028;9.258;2024-01-15T04:07:18;11.77;;;5.17;;
13799;SDS011;6971;50.028;9.258;2024-01-15T04:12:18;16.57;;;6.47;;
13799;SDS011;6971;50.028;9.258;2024-01-15T04:17:18;10.87;;;5.80;;
13799;SDS011;6971;50.028;9.258;2024-01-15T04:22:19;7.90;;;3.87;;
13799;SDS011;6971;50.028;9.258;2024-01-15T04:27:19;13.23;;;6.10;;
13799;SDS011;6971;50.028;9.258;2024-01-15T04:32:19;22.03;;;6.30;;
13799;SDS011;6971;50.028;9.258;2024-01-15T04:37:20;15.03;;;6.40;;
13799;SDS011;6971;50.028;9.258;2024-01-15T04:42:20;17.40;;;7.37;;
13799;SDS011;6971;50.028;9.258;2024-01-15T04:47:21;13.40;;;6.20;;
13799;SDS011;6971;50.028;9.258;2024-01-15T04:52:21;12.63;;;5.80;;
13799;SDS011;6971;50.028;9.258;2024-01-15T04:57:22;14.80;;;6.67;;
13799;SDS011;6971;50.028;9.258;2024-01-15T05:02:22;12.17;;;4.97;;
13799;SDS011;6971;50.028;9.258;2024-01-15T05:07:23;14.57;;;6.03;;
13799;SDS011;6971;50.028;9.258;2024-01-15T05:12:23;15.87;;;6.37;;
13799;SDS011;6971;50.028;9.258;2024-01-15T05:17:23;24.03;;;11.53;;
13799;SDS011;6971;50.028;9.258;2024-01-15T05:22:24;12.87;;;5.93;;
13799;SDS011;6971;50.028;9.258;2024-01-15T05:27:25;12.70;;;5.57;;
13799;SDS011;6971;50.028;9.258;2024-01-15T05:32:25;20.03;;;6.20;;
13799;SDS011;6971;50.028;9.258;2024-01-15T05:37:26;13.23;;;5.30;;
13799;SDS011;6971;50.028;9.258;2024-01-15T05:42:26;27.60;;;6.40;;
13799;SDS011;6971;50.028;9.258;2024-01-15T05:47:26;11.63;;;5.33;;
13799;SDS011;6971;50.028;9.258;2024-01-15T05:52:27;12.53;;;5.00;;
13799;SDS011;6971;50.028;9.258;2024-01-15T05:57:27;10.83;;;5.00;;
13799;SDS011;6971;50.028;9.258;2024-01-15T06:02:28;16.03;;;6.20;;
13799;SDS011;6971;50.028;9.258;2024-01-15T06:07:28;10.80;;;4.93;;
13799;SDS011;6971;50.028;9.258;2024-01-15T06:12:28;12.00;;;4.40;;
13799;SDS011;6971;50.028;9.258;2024-01-15T06:17:29;10.20;;;6.10;;
13799;SDS011;6971;50.028;9.258;2024-01-15T06:22:29;13.87;;;6.93;;
13799;SDS011;6971;50.028;9.258;2024-01-15T06:27:29;21.67;;;7.90;;
13799;SDS011;6971;50.028;9.258;2024-01-15T06:32:30;11.30;;;5.10;;
13799;SDS011;6971;50.028;9.258;2024-01-15T06:37:30;12.70;;;6.57;;
13799;SDS011;6971;50.028;9.258;2024-01-15T06:42:32;12.30;;;4.93;;
13799;SDS011;6971;50.028;9.258;2024-01-15T06:47:33;13.57;;;5.63;;
13799;SDS011;6971;50.028;9.258;2024-01-15T06:52:33;9.37;;;4.67;;
13799;SDS011;6971;50.028;9.258;2024-01-15T06:57:33;18.30;;;7.47;;
13799;SDS011;6971;50.028;9.258;2024-01-15T07:02:34;20.37;;;8.07;;
13799;SDS011;6971;50.028;9.258;2024-01-15T07:07:34;12.47;;;7.07;;
13799;SDS011;6971;50.028;9.258;2024-01-15T07:12:34;14.77;;;6.07;;
13799;SDS011;6971;50.028;9.258;2024-01-15T07:17:35;14.47;;;6.50;;
13799;SDS011;6971;50.028;9.258;2024-01-15T07:22:39;17.40;;;7.57;;
13799;SDS011;6971;50.028;9.258;2024-01-15T07:27:39;16.57;;;7.07;;
13799;SDS011;6971;50.028;9.258;2024-01-15T07:32:39;13.93;;;6.10;;
13799;SDS011;6971;50.028;9.258;2024-01-15T07:37:40;14.17;;;6.57;;
13799;SDS011;6971;50.028;9.258;2024-01-15T07:42:41;11.47;;;7.20;;
13799;SDS011;6971;50.028;9.258;2024-01-15T07:47:42;17.13;;;7.03;;
13799;SDS011;6971;50.028;9.258;2024-01-15T07:52:43;12.50;;;6.23;;
13799;SDS011;6971;50.028;9.258;2024-01-15T07:57:43;14.50;;;7.30;;
13799;SDS011;6971;50.028;9.258;2024-01-15T08:02:44;10.53;;;5.67;;
13799;SDS011;6971;50.028;9.258;2024-01-15T08:07:44;12.93;;;6.07;;
13799;SDS011;6971;50.028;9.258;2024-01-15T08:12:45;14.37;;;5.80;;
13799;SDS011;6971;50.028;9.258;2024-01-15T08:17:45;12.80;;;6.33;;
13799;SDS011;6971;50.028;9.258;2024-01-15T08:22:45;11.83;;;6.60;;
13799;SDS011;6971;50.028;9.258;2024-01-15T08:27:47;22.97;;;6.73;;
13799;SDS011;6971;50.028;9.258;2024-01-15T08:32:47;18.17;;;7.07;;
13799;SDS011;6971;50.028;9.258;2024-01-15T08:37:54;16.07;;;6.80;;
13799;SDS011;6971;50.028;9.258;2024-01-15T08:42:54;14.47;;;7.13;;
13799;SDS011;6971;50.028;9.258;2024-01-15T08:47:54;12.33;;;6.27;;
13799;SDS011;6971;50.028;9.258;2024-01-15T08:52:55;10.90;;;6.17;;
13799;SDS011;6971;50.028;9.258;2024-01-15T08:57:55;8.10;;;5.10;;
13799;SDS011;6971;50.028;9.258;2024-01-15T09:03:01;17.20;;;5.50;;
13799;SDS011;6971;50.028;9.258;2024-01-15T09:08:02;12.93;;;6.30;;
13799;SDS011;6971;50.028;9.258;2024-01-15T09:13:03;11.20;;;6.17;;
13799;SDS011;6971;50.028;9.258;2024-01-15T09:18:04;12.23;;;5.93;;
13799;SDS011;6971;50.028;9.258;2024-01-15T09:23:05;15.50;;;5.23;;
13799;SDS011;6971;50.028;9.258;2024-01-15T09:28:05;13.73;;;6.33;;
13799;SDS011;6971;50.028;9.258;2024-01-15T09:33:06;17.53;;;7.53;;
13799;SDS011;6971;50.028;9.258;2024-01-15T09:38:06;14.43;;;5.83;;
13799;SDS011;6971;50.028;9.258;2024-01-15T09:43:07;15.50;;;6.03;;
13799;SDS011;6971;50.028;9.258;2024-01-15T09:48:07;11.47;;;5.93;;
13799;SDS011;6971;50.028;9.258;2024-01-15T09:53:08;12.97;;;6.43;;
13799;SDS011;6971;50.028;9.258;2024-01-15T09:58:09;16.63;;;6.60;;
13799;SDS011;6971;50.028;9.258;2024-01-15T10:03:10;14.50;;;6.67;;
13799;SDS011;6971;50.028;9.258;2024-01-15T10:08:11;11.93;;;5.57;;
13799;SDS011;6971;50.028;9.258;2024-01-15T10:13:11;17.17;;;7.97;;
13799;SDS011;6971;50.028;9.258;2024-01-15T10:18:12;10.90;;;6.20;;
13799;SDS011;6971;50.028;9.258;2024-01-15T10:23:14;12.27;;;5.97;;
13799;SDS011;6971;50.028;9.258;2024-01-15T10:28:14;22.73;;;7.30;;
13799;SDS011;6971;50.028;9.258;2024-01-15T10:33:14;13.33;;;5.83;;
13799;SDS011;6971;50.028;9.258;2024-01-15T10:38:15;12.77;;;6.77;;
13799;SDS011;6971;50.028;9.258;2024-01-15T10:43:18;15.13;;;7.00;;
13799;SDS011;6971;50.028;9.258;2024-01-15T10:48:18;16.73;;;8.23;;
13799;SDS011;6971;50.028;9.258;2024-01-15T10:53:19;14.23;;;6.90;;
13799;SDS011;6971;50.028;9.258;2024-01-15T10:58:23;13.47;;;6.73;;
13799;SDS011;6971;50.028;9.258;2024-01-15T11:03:25;14.87;;;6.37;;
13799;SDS011;6971;50.028;9.258;2024-01-15T11:08:27;20.07;;;8.33;;
13799;SDS011;6971;50.028;9.258;2024-01-15T11:18:32;23.50;;;9.37;;
13799;SDS011;6971;50.028;9.258;2024-01-15T11:23:45;15.47;;;6.50;;
13799;SDS011;6971;50.028;9.258;2024-01-15T11:28:47;17.63;;;7.37;;
13799;SDS011;6971;50.028;9.258;2024-01-15T11:33:49;12.67;;;6.20;;
13799;SDS011;6971;50.028;9.258;2024-01-15T11:38:50;11.47;;;5.73;;
13799;SDS011;6971;50.028;9.258;2024-01-15T11:43:50;11.83;;;6.47;;
13799;SDS011;6971;50.028;9.258;2024-01-15T11:48:50;16.43;;;6.30;;
13799;SDS011;6971;50.028;9.258;2024-01-15T11:54:01;16.57;;;8.23;;
13799;SDS011;6971;50.028;9.258;2024-01-15T11:59:06;14.67;;;7.90;;
13799;SDS011;6971;50.028;9.258;2024-01-15T12:04:08;13.63;;;5.97;;
13799;SDS011;6971;50.028;9.258;2024-01-15T12:09:08;17.20;;;7.47;;
13799;SDS011;6971;50.028;9.258;2024-01-15T12:14:09;11.37;;;5.77;;
13799;SDS011;6971;50.028;9.258;2024-01-15T12:19:09;17.40;;;7.83;;
13799;SDS011;6971;50.028;9.258;2024-01-15T12:24:10;14.27;;;6.23;;
13799;SDS011;6971;50.028;9.258;2024-01-15T12:29:10;10.77;;;5.43;;
13799;SDS011;6971;50.028;9.258;2024-01-15T12:34:11;9.80;;;4.97;;
13799;SDS011;6971;50.028;9.258;2024-01-15T12:39:12;15.67;;;7.10;;
13799;SDS011;6971;50.028;9.258;2024-01-15T12:44:13;13.57;;;5.60;;
13799;SDS011;6971;50.028;9.258;2024-01-15T12:49:13;12.87;;;6.57;;
13799;SDS011;6971;50.028;9.258;2024-01-15T12:54:13;12.53;;;6.87;;
13799;SDS011;6971;50.028;9.258;2024-01-15T12:59:14;9.93;;;6.10;;
13799;SDS011;6971;50.028;9.258;2024-01-15T13:04:21;13.07;;;6.23;;
13799;SDS011;6971;50.028;9.258;2024-01-15T13:09:22;16.23;;;8.20;;
13799;SDS011;6971;50.028;9.258;2024-01-15T13:14:22;12.60;;;6.40;;
13799;SDS011;6971;50.028;9.258;2024-01-15T13:19:23;8.13;;;4.70;;
13799;SDS011;6971;50.028;9.258;2024-01-15T13:24:23;8.33;;;4.83;;
13799;SDS011;6971;50.028;9.258;2024-01-15T13:29:23;14.67;;;6.90;;
13799;SDS011;6971;50.028;9.258;2024-01-15T13:34:24;8.37;;;5.47;;
13799;SDS011;6971;50.028;9.258;2024-01-15T13:39:25;13.47;;;5.53;;
13799;SDS011;6971;50.028;9.258;2024-01-15T13:44:25;6.53;;;4.17;;
13799;SDS011;6971;50.028;9.258;2024-01-15T13:49:25;11.73;;;5.07;;
13799;SDS011;6971;50.028;9.258;2024-01-15T13:54:26;9.53;;;4.40;;
13799;SDS011;6971;50.028;9.258;2024-01-15T13:59:26;9.47;;;5.03;;
13799;SDS011;6971;50.028;9.258;2024-01-15T14:04:27;8.67;;;4.57;;
13799;SDS011;6971;50.028;9.258;2024-01-15T14:09:27;11.67;;;6.03;;
13799;SDS011;6971;50.028;9.258;2024-01-15T14:14:28;7.57;;;4.47;;
13799;SDS011;6971;50.028;9.258;2024-01-15T14:19:28;9.00;;;6.63;;
13799;SDS011;6971;50.028;9.258;2024-01-15T14:24:29;10.27;;;4.93;;
13799;SDS011;6971;50.028;9.258;2024-01-15T14:29:29;9.23;;;5.07;;
13799;SDS011;6971;50.028;9.258;2024-01-15T14:34:29;10.00;;;4.63;;
13799;SDS011;6971;50.028;9.258;2024-01-15T14:39:30;11.20;;;4.03;;
13799;SDS011;6971;50.028;9.258;2024-01-15T14:44:34;12.77;;;6.03;;
13799;SDS011;6971;50.028;9.258;2024-01-15T14:49:35;16.07;;;6.33;;
13799;SDS011;6971;50.028;9.258;2024-01-15T14:54:35;11.37;;;6.67;;
13799;SDS011;6971;50.028;9.258;2024-01-15T14:59:35;9.53;;;5.17;;
13799;SDS011;6971;50.028;9.258;2024-01-15T15:04:36;13.60;;;6.53;;
13799;SDS011;6971;50.028;9.258;2024-01-15T15:09:36;11.30;;;4.43;;
13799;SDS011;6971;50.028;9.258;2024-01-15T15:14:37;9.07;;;4.87;;
13799;SDS011;6971;50.028;9.258;2024-01-15T15:19:38;8.33;;;4.87;;
13799;SDS011;6971;50.028;9.258;2024-01-15T15:24:40;9.10;;;4.00;;
13799;SDS011;6971;50.028;9.258;2024-01-15T15:29:40;8.70;;;4.30;;
13799;SDS011;6971;50.028;9.258;2024-01-15T15:34:41;9.97;;;3.83;;
13799;SDS011;6971;50.028;9.258;2024-01-15T15:39:41;8.73;;;3.97;;
13799;SDS011;6971;50.028;9.258;2024-01-15T15:44:42;8.33;;;4.23;;
13799;SDS011;6971;50.028;9.258;2024-01-15T15:49:46;10.80;;;5.00;;
13799;SDS011;6971;50.028;9.258;2024-01-15T15:54:46;6.63;;;3.67;;
13799;SDS011;6971;50.028;9.258;2024-01-15T15:59:47;7.97;;;4.63;;
13799;SDS011;6971;50.028;9.258;2024-01-15T16:04:47;5.80;;;3.80;;
13799;SDS011;6971;50.028;9.258;2024-01-15T16:09:47;8.30;;;4.50;;
13799;SDS011;6971;50.028;9.258;2024-01-15T16:14:48;7.10;;;4.43;;
13799;SDS011;6971;50.028;9.258;2024-01-15T16:19:48;13.27;;;4.47;;
13799;SDS011;6971;50.028;9.258;2024-01-15T16:24:49;10.53;;;4.27;;
13799;SDS011;6971;50.028;9.258;2024-01-15T16:29:49;13.30;;;6.60;;
13799;SDS011;6971;50.028;9.258;2024-01-15T16:34:49;9.07;;;5.50;;
13799;SDS011;6971;50.028;9.258;2024-01-15T16:39:50;9.70;;;4.27;;
13799;SDS011;6971;50.028;9.258;2024-01-15T16:44:50;4.63;;;3.47;;
13799;SDS011;6971;50.028;9.258;2024-01-15T16:49:50;5.13;;;3.90;;
13799;SDS011;6971;50.028;9.258;2024-01-15T16:54:51;6.77;;;3.97;;
13799;SDS011;6971;50.028;9.258;2024-01-15T16:59:51;5.00;;;2.60;;
13799;SDS011;6971;50.028;9.258;2024-01-15T17:04:51;6.17;;;3.43;;
13799;SDS011;6971;50.028;9.258;2024-01-15T17:09:52;2.20;;;1.97;;
13799;SDS011;6971;50.028;9.258;2024-01-15T17:14:52;7.10;;;2.80;;
13799;SDS011;6971;50.028;9.258;2024-01-15T17:19:52;10.30;;;3.30;;
13799;SDS011;6971;50.028;9.258;2024-01-15T17:24:55;7.07;;;2.63;;
13799;SDS011;6971;50.028;9.258;2024-01-15T17:29:55;7.93;;;2.70;;
13799;SDS011;6971;50.028;9.258;2024-01-15T17:34:56;5.30;;;2.53;;
13799;SDS011;6971;50.028;9.258;2024-01-15T17:39:56;3.40;;;2.20;;
13799;SDS011;6971;50.028;9.258;2024-01-15T17:44:56;7.53;;;3.50;;
13799;SDS011;6971;50.028;9.258;2024-01-15T17:49:57;2.83;;;2.23;;
13799;SDS011;6971;50.028;9.258;2024-01-15T17:54:57;4.23;;;2.33;;
13799;SDS011;6971;50.028;9.258;2024-01-15T17:59:57;5.07;;;2.63;;
13799;SDS011;6971;50.028;9.258;2024-01-15T18:04:58;3.00;;;1.77;;
13799;SDS011;6971;50.028;9.258;2024-01-15T18:09:58;1.20;;;1.10;;
13799;SDS011;6971;50.028;9.258;2024-01-15T18:14:59;2.07;;;1.60;;
13799;SDS011;6971;50.028;9.258;2024-01-15T18:20:00;2.10;;;1.90;;
13799;SDS011;6971;50.028;9.258;2024-01-15T18:25:02;3.03;;;2.30;;
13799;SDS011;6971;50.028;9.258;2024-01-15T18:30:02;2.70;;;1.63;;
13799;SDS011;6971;50.028;9.258;2024-01-15T18:35:03;2.80;;;1.97;;
13799;SDS011;6971;50.028;9.258;2024-01-15T18:40:04;3.37;;;3.03;;
13799;SDS011;6971;50.028;9.258;2024-01-15T18:45:06;3.20;;;1.67;;
13799;SDS011;6971;50.028;9.258;2024-01-15T18:50:06;4.27;;;1.80;;
13799;SDS011;6971;50.028;9.258;2024-01-15T18:55:07;2.10;;;1.30;;
13799;SDS011;6971;50.028;9.258;2024-01-15T19:00:13;2.23;;;1.80;;
13799;SDS011;6971;50.028;9.258;2024-01-15T19:05:14;2.90;;;1.87;;
13799;SDS011;6971;50.028;9.258;2024-01-15T19:10:14;2.03;;;1.70;;
13799;SDS011;6971;50.028;9.258;2024-01-15T19:15:14;2.13;;;1.93;;
13799;SDS011;6971;50.028;9.258;2024-01-15T19:20:15;2.07;;;1.57;;
13799;SDS011;6971;50.028;9.258;2024-01-15T19:25:15;2.13;;;1.50;;
13799;SDS011;6971;50.028;9.258;2024-01-15T19:30:16;1.90;;;1.43;;
13799;SDS011;6971;50.028;9.258;2024-01-15T19:35:17;1.37;;;1.17;;
13799;SDS011;6971;50.028;9.258;2024-01-15T19:40:17;2.03;;;1.57;;
13799;SDS011;6971;50.028;9.258;2024-01-15T19:45:17;1.90;;;1.50;;
13799;SDS011;6971;50.028;9.258;2024-01-15T19:50:18;1.50;;;1.40;;
13799;SDS011;6971;50.028;9.258;2024-01-15T19:55:19;1.77;;;1.30;;
13799;SDS011;6971;50.028;9.258;2024-01-15T20:00:19;2.50;;;1.97;;
13799;SDS011;6971;50.028;9.258;2024-01-15T20:05:20;2.13;;;1.93;;
13799;SDS011;6971;50.028;9.258;2024-01-15T20:10:20;6.83;;;2.27;;
13799;SDS011;6971;50.028;9.258;2024-01-15T20:15:21;2.40;;;1.70;;
13799;SDS011;6971;50.028;9.258;2024-01-15T20:20:21;3.10;;;1.90;;
13799;SDS011;6971;50.028;9.258;2024-01-15T20:25:23;1.63;;;1.33;;
13799;SDS011;6971;50.028;9.258;2024-01-15T20:30:24;2.53;;;1.97;;
13799;SDS011;6971;50.028;9.258;2024-01-15T20:35:24;3.00;;;1.43;;
13799;SDS011;6971;50.028;9.258;2024-01-15T20:40:24;2.30;;;2.03;;
13799;SDS011;6971;50.028;9.258;2024-01-15T20:45:25;5.00;;;1.77;;
13799;SDS011;6971;50.028;9.258;2024-01-15T20:50:27;2.27;;;1.97;;
13799;SDS011;6971;50.028;9.258;2024-01-15T20:55:27;5.33;;;1.90;;
13799;SDS011;6971;50.028;9.258;2024-01-15T21:00:28;2.13;;;1.90;;
13799;SDS011;6971;50.028;9.258;2024-01-15T21:05:28;7.53;;;2.90;;
13799;SDS011;6971;50.028;9.258;2024-01-15T21:10:29;2.33;;;1.93;;
13799;SDS011;6971;50.028;9.258;2024-01-15T21:15:30;4.40;;;2.37;;
13799;SDS011;6971;50.028;9.258;2024-01-15T21:20:30;3.13;;;2.33;;
13799;SDS011;6971;50.028;9.258;2024-01-15T21:25:31;5.20;;;2.33;;
13799;SDS011;6971;50.028;9.258;2024-01-15T21:30:31;2.57;;;1.63;;
13799;SDS011;6971;50.028;9.258;2024-01-15T21:35:35;5.20;;;1.90;;
13799;SDS011;6971;50.028;9.258;2024-01-15T21:40:35;4.03;;;1.93;;
13799;SDS011;6971;50.028;9.258;2024-01-15T21:45:35;4.10;;;1.70;;
13799;SDS011;6971;50.028;9.258;2024-01-15T21:50:37;2.00;;;1.90;;
13799;SDS011;6971;50.028;9.258;2024-01-15T21:55:38;6.80;;;1.87;;
13799;SDS011;6971;50.028;9.258;2024-01-15T22:00:38;2.07;;;1.90;;
13799;SDS011;6971;50.028;9.258;2024-01-15T22:05:39;4.30;;;2.53;;
13799;SDS011;6971;50.028;9.258;2024-01-15T22:10:41;1.90;;;1.80;;
13799;SDS011;6971;50.028;9.258;2024-01-15T22:15:41;1.70;;;1.60;;
13799;SDS011;6971;50.028;9.258;2024-01-15T22:20:42;1.73;;;1.33;;
13799;SDS011;6971;50.028;9.258;2024-01-15T22:25:42;1.37;;;1.27;;
13799;SDS011;6971;50.028;9.258;2024-01-15T22:30:43;2.03;;;1.77;;
13799;SDS011;6971;50.028;9.258;2024-01-15T22:35:43;3.27;;;2.00;;
13799;SDS011;6971;50.028;9.258;2024-01-15T22:40:43;1.53;;;1.43;;
13799;SDS011;6971;50.028;9.258;2024-01-15T22:45:44;2.80;;;2.07;;
13799;SDS011;6971;50.028;9.258;2024-01-15T22:50:44;2.10;;;1.60;;
13799;SDS011;6971;50.028;9.258;2024-01-15T22:55:44;2.90;;;2.17;;
13799;SDS011;6971;50.028;9.258;2024-01-15T23:00:45;3.43;;;1.80;;
13799;SDS011;6971;50.028;9.258;2024-01-15T23:05:46;2.00;;;1.67;;
13799;SDS011;6971;50.028;9.258;2024-01-15T23:10:46;2.23;;;2.00;;
13799;SDS011;6971;50.028;9.258;2024-01-15T23:15:47;4.77;;;2.33;;
13799;SDS011;6971;50.028;9.258;2024-01-15T23:20:47;3.10;;;1.33;;
13799;SDS011;6971;50.028;9.258;2024-01-15T23:25:47;2.30;;;1.90;;
13799;SDS011;6971;50.028;9.258;2024-01-15T23:30:48;2.03;;;1.80;;
13799;SDS011;6971;50.028;9.258;2024-01-15T23:35:48;7.87;;;2.03;;
13799;SDS011;6971;50.028;9.258;2024-01-15T23:40:48;3.70;;;2.03;;
13799;SDS011;6971;50.028;9.258;2024-01-15T23:45:49;3.30;;;2.60;;
13799;SDS011;6971;50.028;9.258;2024-01-15T23:50:50;1.93;;;1.40;;
13799;SDS011;6971;50.028;9.258;2024-01-15T23:55:50;8.47;;;2.20;;
